Etusivu
METAR-TAF:

METAR-TAF

Lentoasemat :

In Salah, Algeria

Leveyspiiri: 27-15N, Pituuspiiri: 002-31E, korkeus merenpinnasta: 269 m

Tämänhetkinen sää

Tämä raportti tehtiin 54 minuuttia sitten, kello 22.00 UTC
Tuuli 9 kn idästä
Lämpötila 36°C
Kosteus 10%
Ilmanpaine 1013 hPa
Näkyvyys: 8000 m

METAR: DAUI 052200Z 08009KT 8000 NSC 36/00 Q1013

Aika: 23:54 (22:54 UTC)

Sääennuste

Tämä raportti tehtiin 5 tuntia ja 54 minuuttia sitten, kello 17.00 UTC
Ennuste voimassa 05. päivästä klo 18 UTC - 06. päivään klo 18 UTC
Tuuli 12 kn idästä/koillisesta
Näkyvyys: 8000 m
Tulossa
06. päivästä klo 00 UTC - 06. päivään klo 03 UTC
Tuuli 2 kn eri suunnista

TAF: DAUI 051700Z 0518/0618 06012KT 8000 NSC BECMG 0600/0603 VRB02KT

Säähavainnot ja -ennusteet yli 4000 lentoasemalta (METAR- ja TAF-raportit).

Käytössä olevat sääasemat on merkitty karttaan keltaisilla ja punaisilla pisteillä.

Aseta hiiri pisteen päälle nähdäksesi sääaseman nimen.

Klikkaa sitten nähdäksesi säähavainnot ja -ennusteet.

Kartan vaihtaminen: klikkaa mustalla rastilla varustettuja vihreitä pisteitä, niin voit zoomata sisään; viivalla varustettua vihreää pistettä, niin voit zoomata ulos tai vihreitä nuolia, niin pääset viereisille kartoille.


METAR-TAF: